createdAt,value
2022-08-07T00:00:36.658Z,20.80
2022-08-07T00:03:07.211Z,20.79
2022-08-07T00:05:36.166Z,20.77
2022-08-07T00:08:04.986Z,20.82
2022-08-07T00:10:34.617Z,20.84
2022-08-07T00:13:17.471Z,20.87
2022-08-07T00:15:51.584Z,20.92
2022-08-07T00:18:24.642Z,20.91
2022-08-07T00:20:55.243Z,20.91
2022-08-07T00:23:23.440Z,20.91
2022-08-07T00:25:58.166Z,20.84
2022-08-07T00:28:33.723Z,20.86
2022-08-07T00:31:12.354Z,20.86
2022-08-07T00:33:42.988Z,20.90
2022-08-07T00:36:14.168Z,20.94
2022-08-07T00:38:40.873Z,20.96
2022-08-07T00:41:09.920Z,21.00
2022-08-07T00:43:59.829Z,21.03
2022-08-07T00:46:27.771Z,21.01
2022-08-07T00:48:54.315Z,20.99
2022-08-07T00:51:21.232Z,20.99
2022-08-07T00:53:55.339Z,20.98
2022-08-07T00:56:23.394Z,20.99
2022-08-07T00:58:57.579Z,20.96
2022-08-07T01:01:24.530Z,20.96
2022-08-07T01:03:57.201Z,20.99
2022-08-07T01:06:28.979Z,21.00
2022-08-07T01:08:59.364Z,21.00
2022-08-07T01:12:09.585Z,21.01
2022-08-07T01:14:16.822Z,21.01
2022-08-07T01:16:47.250Z,21.03
2022-08-07T01:19:19.212Z,20.98
2022-08-07T01:21:49.202Z,20.93
2022-08-07T01:24:21.223Z,20.86
2022-08-07T01:26:51.967Z,20.82
2022-08-07T01:29:20.564Z,20.83
2022-08-07T01:31:49.596Z,20.84
2022-08-07T01:34:18.732Z,20.83
2022-08-07T01:36:52.598Z,20.87
2022-08-07T01:39:41.445Z,20.85
2022-08-07T01:42:38.473Z,20.90
2022-08-07T01:45:10.100Z,20.93
2022-08-07T01:48:29.335Z,20.98
2022-08-07T01:50:32.167Z,20.98
2022-08-07T01:53:01.758Z,20.97
2022-08-07T01:55:39.998Z,20.92
2022-08-07T01:58:27.359Z,20.92
2022-08-07T02:01:09.828Z,20.92
2022-08-07T02:03:51.976Z,20.92
2022-08-07T02:06:31.706Z,20.89
2022-08-07T02:09:03.633Z,20.91
2022-08-07T02:12:03.236Z,20.89
2022-08-07T02:14:40.908Z,20.85
2022-08-07T02:17:10.884Z,20.80
2022-08-07T02:20:04.550Z,20.79
2022-08-07T02:22:28.578Z,20.76
2022-08-07T02:24:57.947Z,20.75
2022-08-07T02:27:26.370Z,20.81
2022-08-07T02:30:04.042Z,20.83
2022-08-07T02:32:38.683Z,20.80
2022-08-07T02:35:10.836Z,20.79
2022-08-07T02:37:44.154Z,20.74
2022-08-07T02:40:34.916Z,20.72
2022-08-07T02:42:59.181Z,20.77
2022-08-07T02:45:58.292Z,20.73
2022-08-07T02:48:15.702Z,20.76
2022-08-07T02:50:44.933Z,20.76
2022-08-07T02:53:18.031Z,20.77
2022-08-07T02:56:04.287Z,20.84
2022-08-07T02:58:34.011Z,20.87
2022-08-07T03:01:03.110Z,20.90
2022-08-07T03:03:42.101Z,20.86
2022-08-07T03:06:25.994Z,20.78
2022-08-07T03:09:01.852Z,20.74
2022-08-07T03:11:29.467Z,20.74
2022-08-07T03:14:01.767Z,20.73
2022-08-07T03:16:32.447Z,20.74
2022-08-07T03:19:00.098Z,20.74
2022-08-07T03:21:28.316Z,20.75
2022-08-07T03:24:20.820Z,20.76
2022-08-07T03:26:58.479Z,20.78
2022-08-07T03:29:33.915Z,20.82
2022-08-07T03:32:07.086Z,20.82
2022-08-07T03:34:47.163Z,20.85
2022-08-07T03:37:32.614Z,20.82
2022-08-07T03:40:15.615Z,20.82
2022-08-07T03:42:43.822Z,20.83
2022-08-07T03:45:11.552Z,20.81
2022-08-07T03:47:47.749Z,20.81
2022-08-07T03:50:23.154Z,20.80
2022-08-07T03:52:52.289Z,20.85
2022-08-07T03:55:19.080Z,20.88
2022-08-07T03:58:34.144Z,20.85
2022-08-07T04:00:36.830Z,20.90
2022-08-07T04:03:04.818Z,20.96
2022-08-07T04:05:39.389Z,21.04
2022-08-07T04:08:15.911Z,21.17
2022-08-07T04:10:53.893Z,21.33
2022-08-07T04:14:11.008Z,21.52
2022-08-07T04:16:31.325Z,21.69
2022-08-07T04:19:12.623Z,21.74
2022-08-07T04:21:58.841Z,21.78
2022-08-07T04:24:33.781Z,21.92
2022-08-07T04:27:03.026Z,22.10
2022-08-07T04:29:58.205Z,22.26
2022-08-07T04:32:18.206Z,22.25
2022-08-07T04:34:56.180Z,22.23
2022-08-07T04:37:22.854Z,22.24
2022-08-07T04:39:50.743Z,22.21
2022-08-07T04:42:17.432Z,22.17
2022-08-07T04:45:02.598Z,22.14
2022-08-07T04:48:00.915Z,22.17
2022-08-07T04:50:28.312Z,22.21
2022-08-07T04:53:07.138Z,22.38
2022-08-07T04:58:09.898Z,22.45
2022-08-07T04:59:17.095Z,22.45
2022-08-07T05:02:05.768Z,22.45
2022-08-07T05:04:53.718Z,22.44
2022-08-07T05:07:30.417Z,22.45
2022-08-07T05:10:28.428Z,22.50
2022-08-07T05:14:44.943Z,22.42
2022-08-07T05:15:53.550Z,22.38
2022-08-07T05:18:25.635Z,22.36
2022-08-07T05:20:56.580Z,22.34
2022-08-07T05:23:44.667Z,22.27
2022-08-07T05:26:23.932Z,22.33
2022-08-07T05:28:53.682Z,22.40
2022-08-07T05:31:35.319Z,22.40
2022-08-07T05:34:10.786Z,22.43
2022-08-07T05:36:40.699Z,22.47
2022-08-07T05:40:05.321Z,22.46
2022-08-07T05:42:02.584Z,22.43
2022-08-07T05:44:33.671Z,22.43
2022-08-07T05:47:01.704Z,22.44
2022-08-07T05:49:48.026Z,22.43
2022-08-07T05:52:14.580Z,22.48
2022-08-07T05:54:55.578Z,22.49
2022-08-07T05:57:26.755Z,22.48
2022-08-07T06:00:01.185Z,22.51
2022-08-07T06:02:33.084Z,22.49
2022-08-07T06:05:05.947Z,22.51
2022-08-07T06:08:13.437Z,22.48
2022-08-07T06:10:21.721Z,22.47
2022-08-07T06:12:49.645Z,22.48
2022-08-07T06:15:20.010Z,22.48
2022-08-07T06:17:53.935Z,22.56
2022-08-07T06:20:31.825Z,22.52
2022-08-07T06:23:46.869Z,22.56
2022-08-07T06:25:59.724Z,22.56
2022-08-07T06:28:27.905Z,22.55
2022-08-07T06:30:55.676Z,22.55
2022-08-07T06:33:22.916Z,22.57
2022-08-07T06:36:06.505Z,22.60
2022-08-07T06:38:36.732Z,22.65
2022-08-07T06:41:12.895Z,22.71
2022-08-07T06:43:46.156Z,22.77
2022-08-07T06:46:15.334Z,22.80
2022-08-07T06:48:58.278Z,22.82
2022-08-07T06:51:33.180Z,22.85
2022-08-07T06:55:31.345Z,22.91
2022-08-07T06:56:54.491Z,23.00
2022-08-07T07:00:12.289Z,23.06
2022-08-07T07:02:48.656Z,23.14
2022-08-07T07:05:08.914Z,23.20
2022-08-07T07:08:00.170Z,23.20
2022-08-07T07:10:33.495Z,23.19
2022-08-07T07:13:13.171Z,23.21
2022-08-07T07:15:51.772Z,23.22
2022-08-07T07:19:00.254Z,23.29
2022-08-07T07:22:05.027Z,23.36
2022-08-07T07:24:29.343Z,23.28
2022-08-07T07:27:00.949Z,23.27
2022-08-07T07:29:56.491Z,23.24
2022-08-07T07:32:23.105Z,23.25
2022-08-07T07:34:55.827Z,23.22
2022-08-07T07:37:49.414Z,23.24
2022-08-07T07:40:19.674Z,23.26
2022-08-07T07:42:53.965Z,23.29
2022-08-07T07:45:24.603Z,23.36
2022-08-07T07:48:12.923Z,23.42
2022-08-07T07:51:02.018Z,23.49
2022-08-07T07:53:30.462Z,23.52
2022-08-07T07:56:02.004Z,23.48
2022-08-07T07:58:40.183Z,23.56
2022-08-07T08:02:03.206Z,23.65
2022-08-07T08:04:09.324Z,23.67
2022-08-07T08:06:39.572Z,23.70
2022-08-07T08:09:08.578Z,23.80
2022-08-07T08:11:59.492Z,23.85
2022-08-07T08:14:26.649Z,23.99
2022-08-07T08:16:56.324Z,24.12
2022-08-07T08:20:19.531Z,24.17
2022-08-07T08:22:54.342Z,24.23
2022-08-07T08:25:43.048Z,24.31
2022-08-07T08:28:24.156Z,24.33
2022-08-07T08:31:15.901Z,24.37
2022-08-07T08:33:49.036Z,24.43
2022-08-07T08:36:18.148Z,24.49
2022-08-07T08:38:55.978Z,24.51
2022-08-07T08:41:31.489Z,24.49
2022-08-07T08:44:40.895Z,24.50
2022-08-07T08:47:13.783Z,24.57
2022-08-07T08:50:06.133Z,24.61
2022-08-07T08:52:51.548Z,24.69
2022-08-07T08:55:55.238Z,24.72
2022-08-07T08:58:50.602Z,24.87
2022-08-07T09:01:29.758Z,24.91
2022-08-07T09:04:28.822Z,25.11
2022-08-07T09:07:29.331Z,25.18
2022-08-07T09:10:36.135Z,25.32
2022-08-07T09:13:14.679Z,25.34
2022-08-07T09:16:23.931Z,25.40
2022-08-07T09:19:51.134Z,25.45
2022-08-07T09:24:33.365Z,25.59
2022-08-07T09:25:35.547Z,25.74
2022-08-07T09:30:03.263Z,25.87
2022-08-07T09:31:22.699Z,26.04
2022-08-07T09:33:58.939Z,26.19
2022-08-07T09:36:37.315Z,26.31
2022-08-07T09:39:53.205Z,26.43
2022-08-07T09:42:23.072Z,26.67
2022-08-07T09:47:23.773Z,26.93
2022-08-07T09:48:11.704Z,27.15
2022-08-07T09:52:15.955Z,27.35
2022-08-07T09:54:08.238Z,27.64
2022-08-07T09:56:42.791Z,27.85
2022-08-07T10:00:01.423Z,27.95
2022-08-07T10:02:40.400Z,28.13
2022-08-07T10:05:59.749Z,28.24
2022-08-07T10:09:07.213Z,28.32
2022-08-07T10:12:00.032Z,28.34
2022-08-07T10:14:33.546Z,28.45
2022-08-07T10:17:14.151Z,28.43
2022-08-07T10:19:58.108Z,28.62
2022-08-07T10:22:59.290Z,28.62
2022-08-07T10:25:42.216Z,28.76
2022-08-07T10:28:18.748Z,28.90
2022-08-07T10:31:06.087Z,29.07
2022-08-07T10:34:06.676Z,29.16
2022-08-07T10:36:58.453Z,29.30
2022-08-07T10:40:02.735Z,29.54
2022-08-07T10:42:47.286Z,29.76
2022-08-07T10:45:57.838Z,30.05
2022-08-07T10:48:41.067Z,29.82
2022-08-07T10:52:02.292Z,29.80
2022-08-07T10:54:35.460Z,30.00
2022-08-07T10:57:01.968Z,29.97
2022-08-07T10:59:52.218Z,30.10
2022-08-07T11:02:53.649Z,30.19
2022-08-07T11:05:49.159Z,30.18
2022-08-07T11:08:18.408Z,30.27
2022-08-07T11:11:02.962Z,30.37
2022-08-07T11:14:43.940Z,30.47
2022-08-07T11:16:38.955Z,30.45
2022-08-07T11:19:14.103Z,30.59
2022-08-07T11:22:32.238Z,30.67
2022-08-07T11:25:25.674Z,30.91
2022-08-07T11:28:16.577Z,31.09
2022-08-07T11:31:08.584Z,30.81
2022-08-07T11:34:04.193Z,30.84
2022-08-07T11:36:37.584Z,30.90
2022-08-07T11:39:19.853Z,31.06
2022-08-07T11:42:18.559Z,31.11
2022-08-07T11:44:52.799Z,31.38
2022-08-07T11:48:18.089Z,31.60
2022-08-07T11:51:40.874Z,31.80
2022-08-07T11:54:33.297Z,32.07
2022-08-07T11:57:57.729Z,32.39
2022-08-07T12:01:00.188Z,32.45
2022-08-07T12:04:17.352Z,31.78
2022-08-07T12:06:57.213Z,31.82
2022-08-07T12:09:42.546Z,31.82
2022-08-07T12:12:28.784Z,31.81
2022-08-07T12:15:03.192Z,31.79
2022-08-07T12:17:59.217Z,31.77
2022-08-07T12:20:38.061Z,32.02
2022-08-07T12:23:37.120Z,32.25
2022-08-07T12:26:30.053Z,32.53
2022-08-07T12:29:07.541Z,32.88
2022-08-07T12:32:04.951Z,33.16
2022-08-07T12:34:38.805Z,33.39
2022-08-07T12:37:16.851Z,33.47
2022-08-07T12:39:51.777Z,33.52
2022-08-07T12:42:28.026Z,33.77
2022-08-07T12:44:58.609Z,33.78
2022-08-07T12:47:40.635Z,34.00
2022-08-07T12:50:33.835Z,34.20
2022-08-07T12:53:17.697Z,34.38
2022-08-07T12:56:03.935Z,34.42
2022-08-07T12:58:39.631Z,34.62
2022-08-07T13:01:09.023Z,34.39
2022-08-07T13:03:54.904Z,33.95
2022-08-07T13:06:54.205Z,33.93
2022-08-07T13:10:37.493Z,34.13
2022-08-07T13:12:51.901Z,34.05
2022-08-07T13:15:35.896Z,34.39
2022-08-07T13:18:28.284Z,34.81
2022-08-07T13:21:37.356Z,35.00
2022-08-07T13:24:18.495Z,35.23
2022-08-07T13:27:22.446Z,35.44
2022-08-07T13:29:56.869Z,35.53
2022-08-07T13:32:45.615Z,34.94
2022-08-07T13:36:00.467Z,35.16
2022-08-07T13:38:41.927Z,35.34
2022-08-07T13:41:31.137Z,35.30
2022-08-07T13:44:01.797Z,35.39
2022-08-07T13:46:37.645Z,35.74
2022-08-07T13:50:34.652Z,36.11
2022-08-07T13:52:04.851Z,36.17
2022-08-07T13:54:49.604Z,36.34
2022-08-07T13:57:38.191Z,36.47
2022-08-07T14:00:06.760Z,36.89
2022-08-07T14:02:49.500Z,37.26
2022-08-07T14:05:23.525Z,37.38
2022-08-07T14:08:00.990Z,37.51
2022-08-07T14:10:41.976Z,37.35
2022-08-07T14:13:16.075Z,37.31
2022-08-07T14:15:50.680Z,37.67
2022-08-07T14:18:40.242Z,38.09
2022-08-07T14:22:00.469Z,38.37
2022-08-07T14:24:08.963Z,38.87
2022-08-07T14:26:51.306Z,39.24
2022-08-07T14:30:06.548Z,39.43
2022-08-07T14:32:12.637Z,39.91
2022-08-07T14:34:46.434Z,40.21
2022-08-07T14:37:17.352Z,40.48
2022-08-07T14:43:55.924Z,40.61
2022-08-07T14:45:25.530Z,41.01
2022-08-07T14:48:19.868Z,41.14
2022-08-07T14:51:00.103Z,41.21
2022-08-07T14:54:03.574Z,41.30
2022-08-07T14:56:29.815Z,41.49
2022-08-07T14:59:02.101Z,42.05
2022-08-07T15:01:42.641Z,42.44
2022-08-07T15:04:11.653Z,42.65
2022-08-07T15:06:40.681Z,43.03
2022-08-07T15:12:10.418Z,43.56
2022-08-07T15:15:09.187Z,43.20
2022-08-07T15:17:56.148Z,43.64
2022-08-07T15:20:32.406Z,43.77
2022-08-07T15:23:20.208Z,43.87
2022-08-07T15:25:54.161Z,43.53
2022-08-07T15:34:02.728Z,43.97
2022-08-07T15:37:02.792Z,44.09
2022-08-07T15:39:22.415Z,44.49
2022-08-07T15:42:45.116Z,44.57
2022-08-07T15:44:52.296Z,44.83
2022-08-07T15:47:21.843Z,44.89
2022-08-07T15:51:01.208Z,44.06
2022-08-07T15:53:05.452Z,42.99
2022-08-07T15:55:53.826Z,43.60
2022-08-07T15:58:23.663Z,43.35
2022-08-07T16:01:00.033Z,42.94
2022-08-07T16:03:47.453Z,42.94
2022-08-07T16:06:38.358Z,42.66
2022-08-07T16:09:41.173Z,42.26
2022-08-07T16:12:37.834Z,40.64
2022-08-07T16:15:55.751Z,40.96
2022-08-07T16:18:49.465Z,40.82
2022-08-07T16:22:03.552Z,40.38
2022-08-07T16:24:52.633Z,40.04
2022-08-07T16:27:40.311Z,39.72
2022-08-07T16:30:30.836Z,39.36
2022-08-07T16:34:01.404Z,38.81
2022-08-07T16:36:20.885Z,38.39
2022-08-07T16:39:33.482Z,38.20
2022-08-07T16:42:30.676Z,37.50
2022-08-07T16:46:40.968Z,37.00
2022-08-07T16:49:10.427Z,36.51
2022-08-07T16:52:49.288Z,36.06
2022-08-07T16:55:08.456Z,35.68
2022-08-07T16:58:03.994Z,35.30
2022-08-07T17:00:40.815Z,35.21
2022-08-07T17:03:17.537Z,34.89
2022-08-07T17:06:30.137Z,34.76
2022-08-07T17:10:05.165Z,34.48
2022-08-07T17:12:34.476Z,34.38
2022-08-07T17:15:15.764Z,34.26
2022-08-07T17:17:48.389Z,34.07
2022-08-07T17:20:41.864Z,33.79
2022-08-07T17:23:32.350Z,33.27
2022-08-07T17:26:24.344Z,32.89
2022-08-07T17:28:57.899Z,32.79
2022-08-07T17:31:44.384Z,32.70
2022-08-07T17:35:40.033Z,32.54
2022-08-07T17:38:05.005Z,32.37
2022-08-07T17:40:34.277Z,32.21
2022-08-07T17:43:18.020Z,32.09
2022-08-07T17:45:54.838Z,31.93
2022-08-07T17:48:30.620Z,31.74
2022-08-07T17:51:21.606Z,31.75
2022-08-07T17:54:29.787Z,31.52
2022-08-07T17:57:18.702Z,31.19
2022-08-07T17:59:52.294Z,30.98
2022-08-07T18:02:32.661Z,30.77
2022-08-07T18:05:21.968Z,30.73
2022-08-07T18:08:10.027Z,30.70
2022-08-07T18:12:06.990Z,30.63
2022-08-07T18:13:49.591Z,30.50
2022-08-07T18:16:31.194Z,30.47
2022-08-07T18:21:10.406Z,30.27
2022-08-07T18:22:26.424Z,30.16
2022-08-07T18:25:24.163Z,30.03
2022-08-07T18:28:34.341Z,30.06
2022-08-07T18:31:18.646Z,29.85
2022-08-07T18:34:03.900Z,29.75
2022-08-07T18:36:43.599Z,29.67
2022-08-07T18:40:05.152Z,29.56
2022-08-07T18:42:54.899Z,29.44
2022-08-07T18:45:44.209Z,29.44
2022-08-07T18:50:19.055Z,29.29
2022-08-07T18:52:51.758Z,29.22
2022-08-07T18:55:43.365Z,29.16
2022-08-07T18:58:37.111Z,29.02
2022-08-07T19:02:17.300Z,28.93
2022-08-07T19:04:32.135Z,28.77
2022-08-07T19:07:16.395Z,28.62
2022-08-07T19:10:14.835Z,28.51
2022-08-07T19:12:59.431Z,28.38
2022-08-07T19:16:05.959Z,28.19
2022-08-07T19:18:55.028Z,28.03
2022-08-07T19:21:47.980Z,27.93
2022-08-07T19:24:30.516Z,27.85
2022-08-07T19:28:57.982Z,27.74
2022-08-07T19:30:57.666Z,27.66
2022-08-07T19:32:46.228Z,27.66
2022-08-07T19:35:25.330Z,27.54
2022-08-07T19:37:59.875Z,27.51
2022-08-07T19:40:34.578Z,27.45
2022-08-07T19:43:10.807Z,27.37
2022-08-07T19:46:07.889Z,27.25
2022-08-07T19:48:42.751Z,27.18
2022-08-07T19:51:19.444Z,27.11
2022-08-07T19:54:30.988Z,27.01
2022-08-07T19:58:00.368Z,26.93
2022-08-07T19:59:41.553Z,26.84
2022-08-07T20:02:29.230Z,26.72
2022-08-07T20:04:58.020Z,26.56
2022-08-07T20:07:47.794Z,26.43
2022-08-07T20:10:36.939Z,26.36
2022-08-07T20:13:22.484Z,26.31
2022-08-07T20:15:50.025Z,26.21
2022-08-07T20:18:20.181Z,26.12
2022-08-07T20:20:59.972Z,26.05
2022-08-07T20:23:41.559Z,26.05
2022-08-07T20:26:11.050Z,25.96
2022-08-07T20:28:39.953Z,25.92
2022-08-07T20:31:21.452Z,25.83
2022-08-07T20:33:56.707Z,25.78
2022-08-07T20:36:27.236Z,25.73
2022-08-07T20:39:00.241Z,25.66
2022-08-07T20:41:38.436Z,25.64
2022-08-07T20:44:12.516Z,25.57
2022-08-07T20:46:44.639Z,25.52
2022-08-07T20:49:58.480Z,25.41
2022-08-07T20:52:07.836Z,25.26
2022-08-07T20:54:41.631Z,25.25
2022-08-07T20:57:12.833Z,25.14
2022-08-07T21:00:06.432Z,25.15
2022-08-07T21:02:54.372Z,25.06
2022-08-07T21:05:42.651Z,24.93
2022-08-07T21:08:16.518Z,24.83
2022-08-07T21:10:49.450Z,24.80
2022-08-07T21:13:24.532Z,24.73
2022-08-07T21:16:09.200Z,24.62
2022-08-07T21:18:41.134Z,24.53
2022-08-07T21:21:09.085Z,24.54
2022-08-07T21:23:58.637Z,24.38
2022-08-07T21:26:45.374Z,24.42
2022-08-07T21:29:21.327Z,24.34
2022-08-07T21:32:48.778Z,24.15
2022-08-07T21:35:34.639Z,24.09
2022-08-07T21:38:13.277Z,24.07
2022-08-07T21:41:10.916Z,24.05
2022-08-07T21:44:14.683Z,23.92
2022-08-07T21:47:12.128Z,23.80
2022-08-07T21:50:01.416Z,23.80
2022-08-07T21:52:44.456Z,23.77
2022-08-07T21:55:27.987Z,23.72
2022-08-07T21:58:30.023Z,23.73
2022-08-07T22:02:06.153Z,23.68
2022-08-07T22:04:51.376Z,23.56
2022-08-07T22:07:48.625Z,23.51
2022-08-07T22:10:17.638Z,23.35
2022-08-07T22:12:45.232Z,23.29
2022-08-07T22:16:39.209Z,23.28
2022-08-07T22:18:07.248Z,23.20
2022-08-07T22:20:44.336Z,23.20
2022-08-07T22:23:13.762Z,23.23
2022-08-07T22:25:51.982Z,23.20
2022-08-07T22:28:37.427Z,23.12
2022-08-07T22:31:55.968Z,22.96
2022-08-07T22:34:08.327Z,22.81
2022-08-07T22:36:47.618Z,22.79
2022-08-07T22:39:52.700Z,22.65
2022-08-07T22:42:25.621Z,22.67
2022-08-07T22:44:59.103Z,22.68
2022-08-07T22:47:44.909Z,22.60
2022-08-07T22:50:29.093Z,22.50
2022-08-07T22:53:26.816Z,22.48
2022-08-07T22:56:09.176Z,22.45
2022-08-07T22:58:49.422Z,22.49
2022-08-07T23:01:50.828Z,22.47
2022-08-07T23:04:30.154Z,22.41
2022-08-07T23:07:41.742Z,22.37
2022-08-07T23:10:37.600Z,22.28
2022-08-07T23:13:49.091Z,22.24
2022-08-07T23:16:54.629Z,21.88
2022-08-07T23:19:51.695Z,21.87
2022-08-07T23:22:49.345Z,21.78
2022-08-07T23:25:57.829Z,21.75
2022-08-07T23:28:56.535Z,21.66
2022-08-07T23:32:48.851Z,21.58
2022-08-07T23:35:05.295Z,21.59
2022-08-07T23:38:01.633Z,21.54
2022-08-07T23:40:34.175Z,21.42
2022-08-07T23:43:37.717Z,21.33
2022-08-07T23:46:27.265Z,21.21
2022-08-07T23:49:15.825Z,20.94
2022-08-07T23:52:58.692Z,20.88
2022-08-07T23:54:55.228Z,20.77
2022-08-07T23:57:42.935Z,20.82
